createdAt,value
2022-11-25T00:00:42.267Z,99650.00
2022-11-25T00:02:14.290Z,99653.47
2022-11-25T00:03:46.644Z,99650.91
2022-11-25T00:05:18.530Z,99659.47
2022-11-25T00:06:50.435Z,99654.31
2022-11-25T00:08:22.277Z,99657.78
2022-11-25T00:09:54.153Z,99659.47
2022-11-25T00:11:26.325Z,99654.31
2022-11-25T00:12:58.162Z,99657.72
2022-11-25T00:14:30.112Z,99662.03
2022-11-25T00:16:05.810Z,99660.31
2022-11-25T00:17:37.742Z,99661.16
2022-11-25T00:19:10.151Z,99655.13
2022-11-25T00:20:41.982Z,99659.44
2022-11-25T00:22:13.881Z,99661.16
2022-11-25T00:23:46.070Z,99660.31
2022-11-25T00:25:18.043Z,99650.00
2022-11-25T00:26:50.003Z,99651.72
2022-11-25T00:28:21.879Z,99657.72
2022-11-25T00:29:53.694Z,99666.34
2022-11-25T00:31:26.909Z,99660.31
2022-11-25T00:32:58.794Z,99654.31
2022-11-25T00:34:30.703Z,99657.78
2022-11-25T00:36:03.261Z,99657.75
2022-11-25T00:37:35.089Z,99659.47
2022-11-25T00:39:16.887Z,99653.47
2022-11-25T00:41:12.732Z,99656.91
2022-11-25T00:43:03.220Z,99666.38
2022-11-25T00:44:41.676Z,99665.53
2022-11-25T00:46:16.938Z,99657.78
2022-11-25T00:47:48.744Z,99656.94
2022-11-25T00:49:20.623Z,99660.38
2022-11-25T00:50:52.540Z,99662.13
2022-11-25T00:52:25.521Z,99656.97
2022-11-25T00:53:59.079Z,99657.84
2022-11-25T00:55:51.179Z,99655.28
2022-11-25T00:57:23.619Z,99659.53
2022-11-25T00:58:55.564Z,99664.69
2022-11-25T01:00:27.456Z,99668.13
2022-11-25T01:01:59.513Z,99663.84
2022-11-25T01:03:31.441Z,99666.38
2022-11-25T01:05:03.665Z,99665.56
2022-11-25T01:06:36.031Z,99673.28
2022-11-25T01:08:07.921Z,99671.53
2022-11-25T01:09:39.896Z,99674.13
2022-11-25T01:11:12.746Z,99678.41
2022-11-25T01:12:47.319Z,99661.22
2022-11-25T01:14:19.596Z,99663.78
2022-11-25T01:15:51.456Z,99658.63
2022-11-25T01:17:23.313Z,99663.72
2022-11-25T01:18:55.244Z,99655.16
2022-11-25T01:20:27.162Z,99661.16
2022-11-25T01:21:59.023Z,99662.88
2022-11-25T01:23:30.928Z,99655.09
2022-11-25T01:25:02.790Z,99661.13
2022-11-25T01:26:35.399Z,99660.25
2022-11-25T01:28:07.297Z,99659.41
2022-11-25T01:29:41.774Z,99659.41
2022-11-25T01:31:15.304Z,99658.56
2022-11-25T01:32:47.128Z,99661.16
2022-11-25T01:34:20.106Z,99664.63
2022-11-25T01:35:52.002Z,99660.34
2022-11-25T01:37:23.993Z,99658.66
2022-11-25T01:38:56.856Z,99666.44
2022-11-25T01:40:28.851Z,99659.53
2022-11-25T01:42:01.154Z,99660.41
2022-11-25T01:43:33.101Z,99660.44
2022-11-25T01:45:28.520Z,99663.84
2022-11-25T01:47:00.722Z,99658.69
2022-11-25T01:48:38.635Z,99661.28
2022-11-25T01:50:11.159Z,99657.00
2022-11-25T01:51:53.789Z,99658.75
2022-11-25T01:53:25.583Z,99648.44
2022-11-25T01:55:20.877Z,99647.59
2022-11-25T01:56:54.643Z,99645.03
2022-11-25T01:58:27.433Z,99642.44
2022-11-25T02:00:00.021Z,99645.03
2022-11-25T02:01:31.962Z,99647.59
2022-11-25T02:03:03.848Z,99640.72
2022-11-25T02:04:36.255Z,99645.03
2022-11-25T02:06:08.415Z,99649.34
2022-11-25T02:07:41.571Z,99647.59
2022-11-25T02:09:13.410Z,99646.75
2022-11-25T02:10:45.386Z,99650.19
2022-11-25T02:12:18.131Z,99660.50
2022-11-25T02:13:50.213Z,99655.34
2022-11-25T02:15:22.437Z,99655.41
2022-11-25T02:16:54.303Z,99655.41
2022-11-25T02:18:26.423Z,99646.00
2022-11-25T02:20:00.137Z,99648.56
2022-11-25T02:21:34.483Z,99650.31
2022-11-25T02:23:09.275Z,99657.16
2022-11-25T02:24:45.316Z,99653.75
2022-11-25T02:26:17.481Z,99657.16
2022-11-25T02:27:50.606Z,99663.19
2022-11-25T02:29:22.446Z,99664.06
2022-11-25T02:30:54.413Z,99661.47
2022-11-25T02:32:26.295Z,99656.31
2022-11-25T02:56:24.370Z,99666.84
2022-11-25T02:57:56.284Z,99666.00
2022-11-25T02:59:28.283Z,99663.44
2022-11-25T03:01:00.259Z,99660.00
2022-11-25T03:02:35.308Z,99661.75
2022-11-25T03:04:07.314Z,99665.19
2022-11-25T03:05:39.164Z,99666.06
2022-11-25T03:07:11.353Z,99663.53
2022-11-25T03:08:43.304Z,99667.88
2022-11-25T03:10:15.300Z,99667.84
2022-11-25T03:12:05.574Z,99672.16
2022-11-25T03:13:37.475Z,99665.28
2022-11-25T03:15:09.682Z,99668.75
2022-11-25T03:16:41.717Z,99678.28
2022-11-25T03:18:13.684Z,99683.41
2022-11-25T03:19:45.490Z,99681.69
2022-11-25T03:21:17.303Z,99682.56
2022-11-25T03:22:49.180Z,99684.31
2022-11-25T03:24:21.002Z,99679.16
2022-11-25T03:25:52.939Z,99684.31
2022-11-25T03:27:27.998Z,99688.59
2022-11-25T03:29:02.211Z,99693.72
2022-11-25T03:32:09.519Z,99689.47
2022-11-25T03:33:41.656Z,99697.19
2022-11-25T03:35:13.863Z,99696.34
2022-11-25T03:36:45.827Z,99697.25
2022-11-25T03:38:17.758Z,99700.66
2022-11-25T03:39:49.596Z,99699.81
2022-11-25T03:41:21.362Z,99703.28
2022-11-25T03:42:53.201Z,99701.56
2022-11-25T03:44:25.335Z,99704.13
2022-11-25T03:45:57.344Z,99709.28
2022-11-25T03:47:29.316Z,99714.44
2022-11-25T03:49:01.233Z,99710.13
2022-11-25T03:50:33.137Z,99715.28
2022-11-25T03:52:05.054Z,99706.69
2022-11-25T03:53:36.951Z,99711.84
2022-11-25T03:55:09.042Z,99710.13
2022-11-25T03:56:40.970Z,99714.38
2022-11-25T03:58:12.863Z,99717.00
2022-11-25T03:59:44.716Z,99720.44
2022-11-25T04:01:16.687Z,99730.72
2022-11-25T04:02:48.605Z,99722.13
2022-11-25T04:04:20.467Z,99725.56
2022-11-25T04:05:52.366Z,99723.84
2022-11-25T04:07:24.301Z,99732.47
2022-11-25T04:08:56.272Z,99741.03
2022-11-25T04:10:28.153Z,99741.91
2022-11-25T04:12:18.477Z,99735.88
2022-11-25T04:13:50.385Z,99745.34
2022-11-25T04:15:22.321Z,99747.91
2022-11-25T04:16:54.337Z,99748.75
2022-11-25T04:18:26.313Z,99747.00
2022-11-25T04:19:58.249Z,99751.25
2022-11-25T04:21:30.147Z,99752.94
2022-11-25T04:23:02.009Z,99740.91
2022-11-25T04:24:34.185Z,99746.06
2022-11-25T04:26:06.375Z,99751.22
2022-11-25T04:27:38.362Z,99746.03
2022-11-25T04:29:10.215Z,99756.31
2022-11-25T04:30:42.293Z,99760.59
2022-11-25T04:32:14.194Z,99758.81
2022-11-25T04:33:51.101Z,99763.09
2022-11-25T04:35:24.414Z,99765.59
2022-11-25T04:36:56.329Z,99761.28
2022-11-25T04:38:28.267Z,99770.66
2022-11-25T04:40:00.250Z,99768.09
2022-11-25T04:41:32.092Z,99770.66
2022-11-25T04:43:09.148Z,99771.44
2022-11-25T04:44:51.956Z,99765.41
2022-11-25T04:46:29.559Z,99773.97
2022-11-25T04:48:01.685Z,99773.91
2022-11-25T04:49:33.598Z,99771.28
2022-11-25T04:51:05.613Z,99774.69
2022-11-25T04:52:37.467Z,99771.25
2022-11-25T04:54:12.191Z,99784.13
2022-11-25T04:55:47.968Z,99782.38
2022-11-25T04:57:20.165Z,99781.50
2022-11-25T04:59:10.889Z,99784.91
2022-11-25T05:00:42.759Z,99786.59
2022-11-25T05:02:21.893Z,99785.75
2022-11-25T05:03:57.465Z,99786.59
2022-11-25T05:05:29.702Z,99789.16
2022-11-25T05:07:01.627Z,99795.16
2022-11-25T05:08:33.546Z,99791.69
2022-11-25T05:10:06.498Z,99794.28
2022-11-25T05:11:38.601Z,99808.84
2022-11-25T05:13:10.543Z,99807.13
2022-11-25T05:14:42.420Z,99804.53
2022-11-25T05:16:14.332Z,99812.28
2022-11-25T05:17:46.327Z,99808.84
2022-11-25T05:19:18.218Z,99809.69
2022-11-25T05:20:50.104Z,99820.84
2022-11-25T05:22:26.146Z,99810.53
2022-11-25T05:23:58.031Z,99817.41
2022-11-25T05:25:30.021Z,99814.81
2022-11-25T05:27:05.110Z,99817.38
2022-11-25T05:28:36.998Z,99817.41
2022-11-25T05:30:10.504Z,99831.19
2022-11-25T05:31:42.524Z,99821.75
2022-11-25T05:33:14.519Z,99823.44
2022-11-25T05:34:46.424Z,99825.19
2022-11-25T05:36:18.394Z,99834.63
2022-11-25T05:37:50.227Z,99826.91
2022-11-25T05:39:22.085Z,99842.41
2022-11-25T05:40:54.367Z,99846.69
2022-11-25T05:42:26.266Z,99838.09
2022-11-25T05:43:58.119Z,99842.41
2022-11-25T05:45:29.979Z,99844.09
2022-11-25T05:47:02.034Z,99849.25
2022-11-25T05:48:36.899Z,99855.31
2022-11-25T05:50:09.019Z,99862.16
2022-11-25T05:51:40.894Z,99872.47
2022-11-25T05:53:12.909Z,99869.88
2022-11-25T05:54:44.903Z,99875.06
2022-11-25T05:56:16.906Z,99877.63
2022-11-25T05:57:48.946Z,99876.81
2022-11-25T05:59:21.294Z,99883.69
2022-11-25T06:00:53.617Z,99880.25
2022-11-25T06:02:25.831Z,99884.53
2022-11-25T06:04:01.407Z,99889.69
2022-11-25T06:05:34.910Z,99899.97
2022-11-25T06:07:07.825Z,99901.72
2022-11-25T06:08:39.841Z,99899.97
2022-11-25T06:10:11.849Z,99895.66
2022-11-25T06:11:43.907Z,99895.66
2022-11-25T06:13:15.823Z,99903.44
2022-11-25T06:14:47.757Z,99904.34
2022-11-25T06:16:20.881Z,99902.59
2022-11-25T06:17:52.859Z,99907.72
2022-11-25T06:19:24.748Z,99911.16
2022-11-25T06:20:57.378Z,99911.16
2022-11-25T06:22:29.237Z,99906.84
2022-11-25T06:24:01.499Z,99918.88
2022-11-25T06:25:33.756Z,99918.91
2022-11-25T06:27:05.908Z,99924.03
2022-11-25T06:30:09.988Z,99925.78
2022-11-25T06:31:41.992Z,99927.56
2022-11-25T06:33:13.948Z,99924.03
2022-11-25T06:34:46.159Z,99932.63
2022-11-25T06:36:18.519Z,99931.75
2022-11-25T06:37:50.485Z,99938.63
2022-11-25T06:39:22.592Z,99938.63
2022-11-25T06:40:59.148Z,99940.31
2022-11-25T06:42:32.328Z,99940.34
2022-11-25T06:44:04.378Z,99941.22
2022-11-25T06:45:36.353Z,99957.56
2022-11-25T06:47:08.343Z,99960.13
2022-11-25T06:48:40.164Z,99960.13
2022-11-25T06:50:15.064Z,99962.66
2022-11-25T06:51:47.019Z,99965.25
2022-11-25T06:53:23.932Z,99964.41
2022-11-25T06:54:56.176Z,99968.72
2022-11-25T06:56:28.365Z,99966.97
2022-11-25T06:58:27.875Z,99968.69
2022-11-25T06:59:52.142Z,99968.69
2022-11-25T07:01:25.362Z,99970.41
2022-11-25T07:02:57.474Z,99979.03
2022-11-25T07:04:29.610Z,99975.56
2022-11-25T07:06:01.645Z,99981.59
2022-11-25T07:07:33.630Z,99986.75
2022-11-25T07:09:05.755Z,99994.47
2022-11-25T07:10:37.750Z,99986.69
2022-11-25T07:12:09.733Z,99973.78
2022-11-25T07:13:41.762Z,99983.22
2022-11-25T07:15:13.917Z,99982.38
2022-11-25T07:16:46.142Z,99985.81
2022-11-25T07:18:18.040Z,99987.53
2022-11-25T07:19:49.928Z,99984.97
2022-11-25T07:21:22.860Z,99991.81
2022-11-25T07:22:54.738Z,99993.50
2022-11-25T07:24:26.656Z,99991.75
2022-11-25T07:26:18.158Z,99996.06
2022-11-25T07:27:50.291Z,99990.03
2022-11-25T07:31:27.030Z,99996.91
2022-11-25T07:32:59.712Z,100002.94
2022-11-25T07:34:31.995Z,99992.59
2022-11-25T07:36:05.093Z,100003.78
2022-11-25T07:37:37.219Z,99995.13
2022-11-25T07:39:11.312Z,100002.88
2022-11-25T07:40:43.370Z,100008.03
2022-11-25T07:42:15.686Z,99999.44
2022-11-25T07:43:48.611Z,100005.47
2022-11-25T07:45:21.206Z,100013.19
2022-11-25T07:46:53.272Z,100017.47
2022-11-25T07:48:25.184Z,100006.28
2022-11-25T07:49:57.876Z,100007.13
2022-11-25T07:51:31.674Z,100013.97
2022-11-25T07:53:03.753Z,100012.28
2022-11-25T07:54:35.656Z,100014.88
2022-11-25T07:56:07.889Z,100013.13
2022-11-25T08:57:33.887Z,100050.03
2022-11-25T08:59:05.771Z,100056.03
2022-11-25T09:00:38.324Z,100055.22
2022-11-25T09:02:13.758Z,100051.69
2022-11-25T09:03:46.782Z,100055.06
2022-11-25T09:05:19.018Z,100053.38
2022-11-25T09:06:50.891Z,100051.66
2022-11-25T09:08:26.314Z,100060.25
2022-11-25T09:09:58.275Z,100047.34
2022-11-25T09:11:30.551Z,100052.47
2022-11-25T09:13:02.780Z,100048.88
2022-11-25T09:14:34.997Z,100053.97
2022-11-25T09:16:07.430Z,100051.22
2022-11-25T09:17:42.521Z,100052.81
2022-11-25T09:19:14.387Z,100050.97
2022-11-25T09:20:46.677Z,100054.28
2022-11-25T09:22:21.620Z,100053.28
2022-11-25T09:23:54.400Z,100054.91
2022-11-25T09:25:26.446Z,100050.59
2022-11-25T09:26:58.411Z,100042.69
2022-11-25T09:28:30.490Z,100053.09
2022-11-25T09:30:02.452Z,100033.16
2022-11-25T09:31:34.748Z,100041.84
2022-11-25T09:33:06.898Z,100041.00
2022-11-25T09:34:39.171Z,100034.00
2022-11-25T09:36:12.166Z,100036.47
2022-11-25T09:37:44.108Z,100041.63
2022-11-25T09:39:16.151Z,100044.03
2022-11-25T09:41:00.021Z,100031.84
2022-11-25T09:42:59.569Z,100037.72
2022-11-25T09:45:22.334Z,100029.81
2022-11-25T09:47:05.303Z,100046.03
2022-11-25T09:48:40.149Z,100037.19
2022-11-25T09:50:14.819Z,100029.41
2022-11-25T09:52:05.749Z,100023.16
2022-11-25T09:53:57.532Z,100029.13
2022-11-25T09:55:31.931Z,100028.09
2022-11-25T09:57:05.511Z,100027.16
2022-11-25T09:58:42.014Z,100028.13
2022-11-25T10:00:17.653Z,100013.47
2022-11-25T10:01:51.596Z,100027.16
2022-11-25T10:03:43.344Z,100035.78
2022-11-25T10:05:21.315Z,100026.25
2022-11-25T10:06:55.805Z,100028.81
2022-11-25T10:08:29.580Z,100030.44
2022-11-25T10:10:02.274Z,100026.25
2022-11-25T10:11:47.966Z,100021.91
2022-11-25T10:13:21.964Z,100021.16
2022-11-25T10:14:54.763Z,100024.50
2022-11-25T10:18:04.470Z,100018.56
2022-11-25T10:19:54.785Z,100017.72
2022-11-25T10:21:26.687Z,100020.19
2022-11-25T10:23:00.775Z,100026.22
2022-11-25T10:24:34.965Z,100015.81
2022-11-25T10:26:17.353Z,100021.63
2022-11-25T10:28:02.320Z,100012.88
2022-11-25T10:29:35.315Z,100026.53
2022-11-25T10:31:11.802Z,100022.16
2022-11-25T10:32:45.123Z,100018.59
2022-11-25T10:34:30.918Z,100019.47
2022-11-25T10:36:08.604Z,100015.19
2022-11-25T10:37:41.387Z,100015.94
2022-11-25T10:39:24.982Z,100016.06
2022-11-25T10:40:57.272Z,100015.25
2022-11-25T10:42:29.422Z,100009.09
2022-11-25T10:44:01.413Z,100014.25
2022-11-25T10:45:36.065Z,100020.31
2022-11-25T10:47:16.651Z,100003.69
2022-11-25T10:48:59.808Z,100008.56
2022-11-25T10:50:35.577Z,100009.25
2022-11-25T10:52:11.620Z,100017.13
2022-11-25T10:53:43.784Z,100005.97
2022-11-25T10:55:20.156Z,100014.44
2022-11-25T10:56:55.184Z,100002.13
2022-11-25T10:58:31.913Z,100002.13
2022-11-25T11:00:05.155Z,99999.56
2022-11-25T11:01:37.311Z,100004.03
2022-11-25T11:03:22.980Z,100004.06
2022-11-25T11:04:57.222Z,99991.16
2022-11-25T11:06:39.793Z,100000.53
2022-11-25T11:08:14.784Z,100000.38
2022-11-25T11:09:48.781Z,99996.81
2022-11-25T11:11:22.053Z,99998.47
2022-11-25T11:13:00.754Z,100000.97
2022-11-25T11:14:34.653Z,100001.03
2022-11-25T11:16:21.364Z,99997.72
2022-11-25T11:17:54.368Z,99992.41
2022-11-25T11:19:30.205Z,99995.69
2022-11-25T11:21:03.400Z,99998.16
2022-11-25T11:22:36.310Z,99993.06
2022-11-25T11:24:28.587Z,99993.94
2022-11-25T11:26:07.403Z,99988.88
2022-11-25T11:27:39.362Z,99994.72
2022-11-25T11:29:15.129Z,99994.75
2022-11-25T11:31:08.345Z,99987.72
2022-11-25T11:32:40.521Z,99988.44
2022-11-25T11:34:35.950Z,99988.47
2022-11-25T11:36:13.377Z,99994.31
2022-11-25T11:37:46.315Z,99987.56
2022-11-25T11:39:22.648Z,99995.25
2022-11-25T11:40:56.168Z,99992.75
2022-11-25T11:42:37.305Z,99983.25
2022-11-25T11:44:32.656Z,99990.38
2022-11-25T11:46:23.353Z,99990.97
2022-11-25T11:48:13.132Z,99987.41
2022-11-25T11:49:48.475Z,99995.22
2022-11-25T11:51:26.718Z,99983.75
2022-11-25T11:53:02.919Z,99999.28
2022-11-25T11:54:37.135Z,99992.34
2022-11-25T11:56:36.672Z,99991.06
2022-11-25T11:58:25.642Z,99998.72
2022-11-25T12:00:00.138Z,100002.22
2022-11-25T12:01:34.908Z,99991.78
2022-11-25T12:03:20.021Z,99998.16
2022-11-25T12:04:54.912Z,100003.47
2022-11-25T12:06:28.983Z,99998.94
2022-11-25T12:08:04.257Z,100002.44
2022-11-25T12:09:43.877Z,100000.50
2022-11-25T12:11:18.206Z,100008.53
2022-11-25T12:12:52.697Z,100009.00
2022-11-25T12:14:24.877Z,100005.38
2022-11-25T12:16:09.499Z,99999.81
2022-11-25T12:17:43.189Z,100015.53
2022-11-25T12:19:34.035Z,100006.38
2022-11-25T12:21:07.796Z,100005.81
2022-11-25T12:22:49.090Z,100012.94
2022-11-25T12:24:24.321Z,100013.13
2022-11-25T12:25:58.475Z,100003.56
2022-11-25T12:27:41.158Z,100013.00
2022-11-25T12:29:14.567Z,100000.22
2022-11-25T12:31:03.449Z,100007.84
2022-11-25T12:32:37.128Z,100016.19
2022-11-25T12:34:29.422Z,100011.66
2022-11-25T12:36:05.563Z,100002.91
2022-11-25T12:37:45.508Z,100003.91
2022-11-25T12:39:21.204Z,100015.47
2022-11-25T12:40:56.224Z,100011.03
2022-11-25T12:42:28.169Z,100015.13
2022-11-25T12:44:12.794Z,100008.94
2022-11-25T12:45:45.401Z,100014.28
2022-11-25T12:47:17.551Z,100003.81
2022-11-25T12:48:49.917Z,100016.81
2022-11-25T12:50:27.326Z,100013.50
2022-11-25T12:52:11.411Z,100015.03
2022-11-25T12:54:03.498Z,100008.56
2022-11-25T12:55:35.360Z,100010.19
2022-11-25T12:57:26.205Z,100022.38
2022-11-25T12:59:11.200Z,100017.28
2022-11-25T13:00:49.328Z,100016.44
2022-11-25T13:02:29.927Z,100020.75
2022-11-25T13:04:16.800Z,100027.00
2022-11-25T13:05:55.326Z,100021.69
2022-11-25T13:07:28.286Z,100032.47
2022-11-25T13:09:19.171Z,100031.06
2022-11-25T13:10:54.261Z,100024.34
2022-11-25T13:12:32.372Z,100018.25
2022-11-25T13:14:05.843Z,100030.63
2022-11-25T13:15:44.779Z,100027.97
2022-11-25T13:17:17.466Z,100026.44
2022-11-25T13:18:49.892Z,100027.22
2022-11-25T13:20:24.629Z,100027.25
2022-11-25T13:21:57.734Z,100029.97
2022-11-25T13:23:30.244Z,100023.94
2022-11-25T13:25:02.700Z,100026.66
2022-11-25T13:26:38.857Z,100034.34
2022-11-25T13:28:29.704Z,100030.81
2022-11-25T13:30:04.917Z,100021.47
2022-11-25T13:31:59.002Z,100031.19
2022-11-25T13:33:43.409Z,100040.00
2022-11-25T13:35:29.939Z,100029.56
2022-11-25T13:37:25.304Z,100034.81
2022-11-25T13:38:57.263Z,100035.16
2022-11-25T13:40:30.836Z,100043.06
2022-11-25T13:42:13.319Z,100048.50
2022-11-25T13:43:54.147Z,100036.47
2022-11-25T13:45:30.480Z,100044.34
2022-11-25T13:47:20.896Z,100041.03
2022-11-25T13:48:52.873Z,100040.19
2022-11-25T13:50:36.800Z,100049.78
2022-11-25T13:52:26.243Z,100049.84
2022-11-25T13:53:58.903Z,100056.00
2022-11-25T13:55:38.190Z,100049.16
2022-11-25T13:57:13.271Z,100053.50
2022-11-25T13:59:04.326Z,100047.38
2022-11-25T14:00:36.394Z,100051.81
2022-11-25T14:02:25.551Z,100059.81
2022-11-25T14:03:57.962Z,100059.91
2022-11-25T14:05:33.133Z,100071.06
2022-11-25T14:07:15.672Z,100070.25
2022-11-25T14:09:06.915Z,100068.50
2022-11-25T14:10:46.198Z,100068.59
2022-11-25T14:12:33.472Z,100070.34
2022-11-25T14:14:19.462Z,100073.84
2022-11-25T14:16:00.010Z,100078.19
2022-11-25T14:17:36.096Z,100074.84
2022-11-25T14:19:50.603Z,100074.97
2022-11-25T14:21:37.672Z,100081.81
2022-11-25T14:23:09.702Z,100083.63
2022-11-25T14:26:48.118Z,100084.66
2022-11-25T14:28:37.334Z,100089.81
2022-11-25T14:30:09.674Z,100093.34
2022-11-25T14:31:45.100Z,100087.34
2022-11-25T14:33:18.006Z,100089.94
2022-11-25T14:34:51.886Z,100096.91
2022-11-25T14:36:31.486Z,100093.41
2022-11-25T14:38:08.435Z,100093.41
2022-11-25T14:39:58.945Z,100096.91
2022-11-25T14:41:33.147Z,100098.69
2022-11-25T14:43:24.100Z,100102.16
2022-11-25T14:44:57.621Z,100104.03
2022-11-25T14:46:29.701Z,100106.53
2022-11-25T14:48:14.901Z,100106.56
2022-11-25T14:51:46.112Z,100109.25
2022-11-25T14:53:19.768Z,100104.94
2022-11-25T14:54:52.337Z,100110.09
2022-11-25T14:56:26.621Z,100108.44
2022-11-25T14:57:58.686Z,100118.06
2022-11-25T14:59:30.864Z,100120.66
2022-11-25T15:01:07.439Z,100124.13
2022-11-25T15:02:43.139Z,100121.56
2022-11-25T15:04:19.428Z,100129.38
2022-11-25T15:05:58.274Z,100126.81
2022-11-25T15:07:31.443Z,100127.78
2022-11-25T15:09:20.634Z,100133.84
2022-11-25T15:10:52.745Z,100132.09
2022-11-25T15:12:24.947Z,100133.00
2022-11-25T15:14:05.315Z,100134.81
2022-11-25T15:15:37.295Z,100144.28
2022-11-25T15:17:09.865Z,100139.19
2022-11-25T15:19:01.621Z,100141.78
2022-11-25T15:20:35.680Z,100140.03
2022-11-25T15:22:22.451Z,100140.91
2022-11-25T15:23:55.182Z,100144.38
2022-11-25T15:25:27.374Z,100143.59
2022-11-25T15:27:00.744Z,100141.00
2022-11-25T15:28:36.678Z,100138.47
2022-11-25T15:30:24.884Z,100141.94
2022-11-25T15:31:56.963Z,100145.44
2022-11-25T15:33:29.700Z,100140.31
2022-11-25T15:35:02.051Z,100142.91
2022-11-25T15:36:34.213Z,100151.50
2022-11-25T15:38:38.855Z,100149.81
2022-11-25T15:40:29.283Z,100154.13
2022-11-25T15:42:07.592Z,100151.56
2022-11-25T15:43:43.988Z,100154.19
2022-11-25T15:45:18.859Z,100153.34
2022-11-25T15:46:55.407Z,100152.50
2022-11-25T15:48:30.064Z,100161.09
2022-11-25T15:50:06.573Z,100165.44
2022-11-25T15:51:42.187Z,100162.00
2022-11-25T15:53:23.745Z,100156.03
2022-11-25T15:55:02.709Z,100156.91
2022-11-25T15:56:36.519Z,100154.38
2022-11-25T15:58:12.475Z,100159.53
2022-11-25T15:59:49.111Z,100159.59
2022-11-25T16:01:24.389Z,100158.78
2022-11-25T16:02:58.365Z,100160.53
2022-11-25T16:04:30.415Z,100165.75
2022-11-25T16:06:02.782Z,100164.03
2022-11-25T16:07:34.961Z,100167.50
2022-11-25T16:09:18.886Z,100170.09
2022-11-25T16:10:52.317Z,100168.50
2022-11-25T16:12:24.446Z,100182.31
2022-11-25T16:14:04.685Z,100179.78
2022-11-25T16:15:44.035Z,100180.66
2022-11-25T16:17:16.177Z,100184.16
2022-11-25T16:19:10.571Z,100184.13
2022-11-25T16:20:55.706Z,100190.16
2022-11-25T16:22:27.896Z,100194.47
2022-11-25T16:24:00.840Z,100196.16
2022-11-25T16:25:32.865Z,100197.03
2022-11-25T16:27:05.199Z,100199.59
2022-11-25T16:28:37.300Z,100196.16
2022-11-25T16:30:18.069Z,100202.16
2022-11-25T16:31:50.314Z,100209.91
2022-11-25T16:33:22.465Z,100212.47
2022-11-25T16:34:57.924Z,100214.16
2022-11-25T16:36:30.048Z,100211.56
2022-11-25T16:38:02.184Z,100208.13
2022-11-25T16:39:37.651Z,100220.09
2022-11-25T16:41:10.822Z,100206.34
2022-11-25T16:42:43.300Z,100219.22
2022-11-25T16:44:18.540Z,100220.06
2022-11-25T16:45:51.766Z,100223.47
2022-11-25T16:47:24.653Z,100222.63
2022-11-25T16:48:57.015Z,100225.19
2022-11-25T16:50:29.262Z,100225.16
2022-11-25T16:52:01.469Z,100227.69
2022-11-25T16:53:33.412Z,100228.53
2022-11-25T16:55:05.766Z,100222.47
2022-11-25T16:56:38.329Z,100230.16
2022-11-25T16:58:18.103Z,100228.44
2022-11-25T16:59:53.244Z,100222.38
2022-11-25T17:01:28.207Z,100230.94
2022-11-25T17:03:00.502Z,100233.50
2022-11-25T17:04:32.551Z,100235.19
2022-11-25T17:06:09.660Z,100236.91
2022-11-25T17:09:15.301Z,100234.31
2022-11-25T17:10:47.577Z,100231.72
2022-11-25T17:12:23.531Z,100237.69
2022-11-25T17:13:55.937Z,100235.06
2022-11-25T17:15:31.326Z,100235.88
2022-11-25T17:17:05.532Z,100240.97
2022-11-25T17:18:38.058Z,100244.31
2022-11-25T17:20:16.971Z,100243.44
2022-11-25T17:21:49.410Z,100242.47
2022-11-25T17:23:22.929Z,100250.19
2022-11-25T17:24:55.429Z,100245.00
2022-11-25T17:26:38.034Z,100248.44
2022-11-25T17:28:11.327Z,100251.91
2022-11-25T17:29:43.847Z,100257.00
2022-11-25T17:31:16.335Z,100255.28
2022-11-25T17:32:48.705Z,100249.31
2022-11-25T17:34:20.879Z,100254.44
2022-11-25T17:35:53.098Z,100251.91
2022-11-25T17:39:04.966Z,100252.75
2022-11-25T17:40:38.469Z,100251.88
2022-11-25T17:42:14.185Z,100251.94
2022-11-25T17:43:47.133Z,100254.56
2022-11-25T17:45:20.189Z,100257.09
2022-11-25T17:46:52.693Z,100257.97
2022-11-25T17:48:24.922Z,100252.03
2022-11-25T17:49:58.431Z,100258.91
2022-11-25T17:51:30.461Z,100260.66
2022-11-25T17:53:02.528Z,100257.25
2022-11-25T17:54:34.725Z,100253.78
2022-11-25T17:56:18.929Z,100252.94
2022-11-25T17:57:50.856Z,100260.66
2022-11-25T17:59:24.523Z,100264.13
2022-11-25T18:00:56.580Z,100255.53
2022-11-25T18:02:31.883Z,100256.38
2022-11-25T18:04:17.477Z,100259.72
2022-11-25T18:05:49.740Z,100260.53
2022-11-25T18:08:53.653Z,100267.41
2022-11-25T18:10:26.814Z,100262.28
2022-11-25T18:11:59.924Z,100271.72
2022-11-25T18:13:32.787Z,100278.63
2022-11-25T18:15:08.672Z,100280.34
2022-11-25T18:16:42.146Z,100283.81
2022-11-25T18:18:20.756Z,100287.25
2022-11-25T18:19:55.339Z,100288.09
2022-11-25T18:21:27.965Z,100289.00
2022-11-25T18:23:00.593Z,100300.13
2022-11-25T18:24:32.662Z,100292.44
2022-11-25T18:26:04.855Z,100299.31
2022-11-25T18:27:36.846Z,100293.28
2022-11-25T18:29:12.457Z,100292.44
2022-11-25T18:30:44.474Z,100297.59
2022-11-25T18:32:16.755Z,100301.03
2022-11-25T18:33:48.886Z,100301.06
2022-11-25T18:35:25.116Z,100293.38
2022-11-25T18:36:57.353Z,100302.81
2022-11-25T18:38:29.733Z,100301.16
2022-11-25T18:40:01.757Z,100301.19
2022-11-25T18:41:33.639Z,100301.19
2022-11-25T18:43:06.309Z,100306.38
2022-11-25T18:44:42.590Z,100306.38
2022-11-25T18:46:15.396Z,100303.81
2022-11-25T18:47:47.920Z,100309.00
2022-11-25T18:49:19.920Z,100305.56
2022-11-25T18:50:52.986Z,100314.16
2022-11-25T18:52:25.456Z,100304.72
2022-11-25T18:53:57.347Z,100308.19
2022-11-25T18:55:29.348Z,100303.06
2022-11-25T18:57:01.762Z,100303.03
2022-11-25T18:58:33.903Z,100305.59
2022-11-25T19:00:31.116Z,100303.91
2022-11-25T19:01:59.597Z,100298.78
2022-11-25T19:03:31.676Z,100298.78
2022-11-25T19:05:06.729Z,100299.66
2022-11-25T19:06:38.732Z,100312.56
2022-11-25T19:08:10.997Z,100315.16
2022-11-25T19:09:43.326Z,100314.31
2022-11-25T19:11:17.235Z,100312.63
2022-11-25T19:12:50.808Z,100321.25
2022-11-25T19:14:30.300Z,100318.69
2022-11-25T19:16:06.648Z,100322.13
2022-11-25T19:17:38.690Z,100328.16
2022-11-25T19:19:13.904Z,100327.34
2022-11-25T19:20:46.092Z,100327.34
2022-11-25T19:22:19.765Z,100332.50
2022-11-25T19:23:51.924Z,100337.69
2022-11-25T19:25:24.164Z,100338.53
2022-11-25T19:26:56.967Z,100340.28
2022-11-25T19:28:29.242Z,100342.00
2022-11-25T19:30:01.322Z,100341.19
2022-11-25T19:31:33.403Z,100340.31
2022-11-25T19:33:05.436Z,100353.19
2022-11-25T19:34:38.940Z,100352.34
2022-11-25T19:36:13.680Z,100353.25
2022-11-25T19:37:45.804Z,100348.97
2022-11-25T19:39:19.017Z,100354.09
2022-11-25T19:40:51.129Z,100356.69
2022-11-25T19:42:26.074Z,100356.72
2022-11-25T19:43:58.097Z,100353.28
2022-11-25T19:45:31.494Z,100358.44
2022-11-25T19:47:19.210Z,100361.84
2022-11-25T19:48:51.159Z,100362.75
2022-11-25T19:50:24.027Z,100362.72
2022-11-25T19:51:56.071Z,100365.31
2022-11-25T19:53:33.509Z,100375.59
2022-11-25T19:55:16.025Z,100376.47
2022-11-25T19:56:47.976Z,100376.47
2022-11-25T19:58:19.871Z,100374.75
2022-11-25T19:59:51.798Z,100379.88